createdAt,value
2022-11-01T00:03:52.652Z,100312.91
2022-11-01T00:08:54.628Z,100321.22
2022-11-01T00:13:56.210Z,100309.16
2022-11-01T00:18:57.777Z,100328.66
2022-11-01T00:23:59.270Z,100332.72
2022-11-01T00:29:00.817Z,100341.09
2022-11-01T00:34:05.632Z,100347.88
2022-11-01T00:39:07.758Z,100364.22
2022-11-01T00:44:09.203Z,100366.72
2022-11-01T00:49:10.690Z,100343.78
2022-11-01T00:54:12.167Z,100326.78
2022-11-01T00:59:13.670Z,100325.78
2022-11-01T01:04:15.168Z,100329.88
2022-11-01T01:09:16.619Z,100318.75
2022-11-01T01:14:18.079Z,100305.84
2022-11-01T01:19:19.956Z,100303.94
2022-11-01T01:24:21.744Z,100301.06
2022-11-01T01:29:23.346Z,100298.31
2022-11-01T01:34:24.787Z,100299.88
2022-11-01T01:39:26.286Z,100303.97
2022-11-01T01:44:56.727Z,100308.81
2022-11-01T01:50:07.488Z,100311.13
2022-11-01T01:55:11.132Z,100296.00
2022-11-01T02:00:13.277Z,100296.84
2022-11-01T02:05:35.329Z,100307.78
2022-11-01T02:10:37.387Z,100312.91
2022-11-01T02:15:50.276Z,100320.41
2022-11-01T02:21:16.054Z,100326.56
2022-11-01T02:26:36.886Z,100324.50
2022-11-01T02:31:59.762Z,100344.59
2022-11-01T02:37:37.142Z,100352.59
2022-11-01T02:42:46.601Z,100335.38
2022-11-01T02:47:48.065Z,100345.13
2022-11-01T02:52:49.768Z,100339.84
2022-11-01T02:57:51.217Z,100335.72
2022-11-01T03:03:01.109Z,100335.50
2022-11-01T03:08:07.450Z,100342.53
2022-11-01T03:13:32.605Z,100337.13
2022-11-01T03:18:39.142Z,100357.72
2022-11-01T03:23:47.111Z,100365.69
2022-11-01T03:28:56.940Z,100366.63
2022-11-01T03:34:03.059Z,100379.19
2022-11-01T03:39:15.203Z,100381.69
2022-11-01T03:44:17.386Z,100395.22
2022-11-01T03:49:19.596Z,100410.44
2022-11-01T03:54:21.360Z,100426.44
2022-11-01T03:59:26.096Z,100442.53
2022-11-01T04:04:27.529Z,100443.25
2022-11-01T04:09:28.986Z,100469.50
2022-11-01T04:14:49.250Z,100456.41
2022-11-01T04:20:09.144Z,100449.63
2022-11-01T04:25:10.633Z,100448.38
2022-11-01T04:30:12.392Z,100441.72
2022-11-01T04:35:13.985Z,100460.91
2022-11-01T04:40:15.552Z,100464.56
2022-11-01T04:45:17.082Z,100467.75
2022-11-01T04:50:20.312Z,100456.44
2022-11-01T04:55:21.770Z,100464.69
2022-11-01T05:00:23.637Z,100454.25
2022-11-01T05:05:25.092Z,100458.28
2022-11-01T05:10:26.592Z,100440.16
2022-11-01T05:15:28.167Z,100463.75
2022-11-01T05:20:30.721Z,100424.63
2022-11-01T05:25:37.023Z,100440.72
2022-11-01T05:30:40.531Z,100453.41
2022-11-01T05:35:41.972Z,100454.22
2022-11-01T05:40:43.505Z,100470.44
2022-11-01T05:45:44.952Z,100457.63
2022-11-01T05:50:47.100Z,100471.81
2022-11-01T05:55:48.661Z,100470.72
2022-11-01T06:00:50.178Z,100475.50
2022-11-01T06:05:51.678Z,100481.06
2022-11-01T06:11:00.288Z,100480.13
2022-11-01T06:16:04.463Z,100482.25
2022-11-01T06:21:06.095Z,100485.88
2022-11-01T06:26:07.652Z,100492.84
2022-11-01T06:31:09.115Z,100503.38
2022-11-01T06:36:10.596Z,100514.94
2022-11-01T06:41:12.057Z,100534.19
2022-11-01T06:46:13.612Z,100550.13
2022-11-01T06:51:15.159Z,100565.09
2022-11-01T06:56:16.664Z,100556.88
2022-11-01T07:01:19.195Z,100568.38
2022-11-01T07:06:21.954Z,100583.59
2022-11-01T07:11:27.419Z,100591.13
2022-11-01T07:16:32.672Z,100598.75
2022-11-01T07:21:34.152Z,100613.88
2022-11-01T07:26:35.598Z,100620.97
2022-11-01T07:31:38.917Z,100613.59
2022-11-01T07:36:40.388Z,100620.72
2022-11-01T07:41:42.044Z,100616.63
2022-11-01T07:46:43.518Z,100626.44
2022-11-01T07:51:45.021Z,100634.59
2022-11-01T07:56:47.873Z,100644.59
2022-11-01T08:01:49.460Z,100648.44
2022-11-01T08:06:52.256Z,100652.66
2022-11-01T08:11:54.000Z,100660.38
2022-11-01T08:17:01.907Z,100665.38
2022-11-01T08:22:03.457Z,100654.13
2022-11-01T08:27:04.921Z,100657.53
2022-11-01T08:32:06.392Z,100672.97
2022-11-01T08:37:07.869Z,100680.53
2022-11-01T08:42:09.686Z,100665.25
2022-11-01T08:47:11.657Z,100672.78
2022-11-01T08:52:13.279Z,100672.47
2022-11-01T08:57:16.076Z,100665.34
2022-11-01T09:02:17.855Z,100667.88
2022-11-01T09:07:20.338Z,100672.06
2022-11-01T09:12:24.807Z,100684.22
2022-11-01T09:17:26.553Z,100688.63
2022-11-01T09:22:28.962Z,100689.47
2022-11-01T09:27:30.794Z,100697.22
2022-11-01T09:32:32.369Z,100706.69
2022-11-01T09:37:34.036Z,100702.28
2022-11-01T09:42:40.206Z,100702.66
2022-11-01T09:47:46.106Z,100705.22
2022-11-01T09:52:49.169Z,100705.38
2022-11-01T09:58:30.196Z,100718.97
2022-11-01T10:03:54.255Z,100742.81
2022-11-01T10:09:22.125Z,100756.25
2022-11-01T10:15:00.523Z,100756.66
2022-11-01T10:20:04.303Z,100761.41
2022-11-01T10:25:26.297Z,100779.84
2022-11-01T10:30:31.444Z,100785.91
2022-11-01T10:35:41.607Z,100776.44
2022-11-01T10:41:29.280Z,100779.09
2022-11-01T10:46:43.958Z,100797.47
2022-11-01T10:51:48.244Z,100789.13
2022-11-01T10:56:53.503Z,100785.00
2022-11-01T11:01:56.043Z,100793.22
2022-11-01T11:06:57.759Z,100787.44
2022-11-01T11:12:05.123Z,100788.16
2022-11-01T11:17:26.040Z,100792.72
2022-11-01T11:22:27.731Z,100800.28
2022-11-01T11:27:32.882Z,100802.97
2022-11-01T11:32:38.825Z,100801.28
2022-11-01T11:37:49.711Z,100791.13
2022-11-01T11:43:15.000Z,100795.72
2022-11-01T11:48:21.926Z,100791.13
2022-11-01T11:53:24.510Z,100790.38
2022-11-01T11:58:41.310Z,100788.38
2022-11-01T12:04:05.992Z,100792.97
2022-11-01T12:09:34.670Z,100789.03
2022-11-01T12:14:38.783Z,100803.31
2022-11-01T12:19:40.245Z,100795.19
2022-11-01T12:24:50.747Z,100791.34
2022-11-01T12:30:00.938Z,100791.44
2022-11-01T12:35:07.143Z,100783.44
2022-11-01T12:40:19.012Z,100779.75
2022-11-01T12:46:09.554Z,100777.25
2022-11-01T12:51:10.931Z,100783.56
2022-11-01T12:56:13.137Z,100785.91
2022-11-01T13:01:53.692Z,100775.59
2022-11-01T13:07:14.016Z,100772.13
2022-11-01T13:12:49.085Z,100780.50
2022-11-01T13:18:08.947Z,100779.66
2022-11-01T13:23:34.201Z,100778.09
2022-11-01T13:28:41.392Z,100772.13
2022-11-01T13:34:08.352Z,100766.97
2022-11-01T13:39:38.073Z,100759.56
2022-11-01T13:44:48.783Z,100763.63
2022-11-01T13:50:24.124Z,100767.38
2022-11-01T13:55:34.838Z,100768.47
2022-11-01T14:00:45.812Z,100771.78
2022-11-01T14:06:11.705Z,100768.78
2022-11-01T14:11:34.392Z,100772.78
2022-11-01T14:16:35.890Z,100769.00
2022-11-01T14:21:46.778Z,100773.63
2022-11-01T14:27:19.036Z,100771.56
2022-11-01T14:32:23.876Z,100768.53
2022-11-01T14:37:29.061Z,100766.78
2022-11-01T14:42:39.001Z,100770.31
2022-11-01T14:47:41.149Z,100766.16
2022-11-01T14:52:49.253Z,100765.44
2022-11-01T14:57:50.956Z,100761.75
2022-11-01T15:02:52.828Z,100766.84
2022-11-01T15:07:59.190Z,100764.00
2022-11-01T15:13:02.350Z,100768.72
2022-11-01T15:18:06.380Z,100768.44
2022-11-01T15:23:11.608Z,100771.63
2022-11-01T15:28:22.552Z,100773.13
2022-11-01T15:33:31.568Z,100777.06
2022-11-01T15:38:35.742Z,100788.91
2022-11-01T15:43:37.362Z,100781.84
2022-11-01T15:48:39.140Z,100786.78
2022-11-01T15:53:43.043Z,100790.09
2022-11-01T15:58:54.244Z,100786.66
2022-11-01T16:04:09.960Z,100796.75
2022-11-01T16:09:18.606Z,100801.81
2022-11-01T16:14:37.122Z,100796.53
2022-11-01T16:19:48.441Z,100798.25
2022-11-01T16:24:50.179Z,100805.75
2022-11-01T16:29:52.868Z,100816.56
2022-11-01T16:35:00.183Z,100817.97
2022-11-01T16:40:22.496Z,100834.09
2022-11-01T16:45:23.995Z,100838.91
2022-11-01T16:50:25.522Z,100840.38
2022-11-01T16:55:28.531Z,100848.69
2022-11-01T17:00:31.644Z,100847.53
2022-11-01T17:05:33.191Z,100860.78
2022-11-01T17:10:34.646Z,100866.38
2022-11-01T17:15:41.759Z,100873.63
2022-11-01T17:20:44.642Z,100871.63
2022-11-01T17:25:51.283Z,100887.31
2022-11-01T17:30:53.384Z,100887.47
2022-11-01T17:35:54.886Z,100893.09
2022-11-01T17:40:56.931Z,100896.63
2022-11-01T17:45:59.810Z,100904.28
2022-11-01T17:51:01.886Z,100907.09
2022-11-01T17:56:03.579Z,100902.50
2022-11-01T18:01:05.412Z,100924.00
2022-11-01T18:06:07.122Z,100924.13
2022-11-01T18:11:11.217Z,100926.00
2022-11-01T18:16:34.098Z,100919.28
2022-11-01T18:21:45.383Z,100931.22
2022-11-01T18:26:46.914Z,100932.69
2022-11-01T18:32:16.888Z,100928.41
2022-11-01T18:37:39.231Z,100925.91
2022-11-01T18:42:42.131Z,100919.25
2022-11-01T18:47:53.301Z,100921.97
2022-11-01T18:53:10.549Z,100932.22
2022-11-01T18:58:21.130Z,100931.53
2022-11-01T19:03:25.324Z,100922.19
2022-11-01T19:08:27.280Z,100913.72
2022-11-01T19:13:34.032Z,100919.03
2022-11-01T19:18:40.706Z,100909.97
2022-11-01T19:23:54.876Z,100906.81
2022-11-01T19:28:57.648Z,100905.13
2022-11-01T19:34:03.092Z,100907.66
2022-11-01T19:39:21.008Z,100911.41
2022-11-01T19:44:24.557Z,100903.03
2022-11-01T19:49:30.121Z,100911.78
2022-11-01T19:54:36.226Z,100917.28
2022-11-01T19:59:37.726Z,100914.38
2022-11-01T20:04:39.178Z,100920.75
2022-11-01T20:09:40.975Z,100921.97
2022-11-01T20:14:42.454Z,100919.69
2022-11-01T20:19:45.172Z,100925.47
2022-11-01T20:24:47.169Z,100934.94
2022-11-01T20:29:48.806Z,100939.31
2022-11-01T20:34:50.629Z,100937.06
2022-11-01T20:39:52.055Z,100939.94
2022-11-01T20:44:53.556Z,100947.03
2022-11-01T20:49:55.066Z,100955.78
2022-11-01T20:54:57.722Z,100961.94
2022-11-01T20:59:59.336Z,100961.22
2022-11-01T21:05:14.375Z,100967.31
2022-11-01T21:10:35.657Z,100975.16
2022-11-01T21:15:39.430Z,100978.72
2022-11-01T21:20:44.630Z,100979.72
2022-11-01T21:25:46.861Z,100981.53
2022-11-01T21:30:48.442Z,100980.72
2022-11-01T21:35:53.079Z,100979.88
2022-11-01T21:40:54.554Z,100990.91
2022-11-01T21:45:56.172Z,100989.25
2022-11-01T21:50:57.794Z,100990.22
2022-11-01T21:55:59.251Z,100995.41
2022-11-01T22:01:00.809Z,100993.00
2022-11-01T22:06:02.314Z,100997.38
2022-11-01T22:11:03.830Z,101006.00
2022-11-01T22:16:05.736Z,101002.72
2022-11-01T22:21:07.215Z,101001.06
2022-11-01T22:26:08.730Z,101003.72
2022-11-01T22:31:10.472Z,101002.88
2022-11-01T22:36:21.150Z,101002.91
2022-11-01T22:41:22.625Z,101005.56
2022-11-01T22:46:53.582Z,101002.22
2022-11-01T22:52:24.466Z,101003.03
2022-11-01T22:57:31.935Z,101004.38
2022-11-01T23:02:37.483Z,101008.03
2022-11-01T23:07:47.726Z,101013.25
2022-11-01T23:13:10.869Z,101003.34
2022-11-01T23:18:16.214Z,101009.84
2022-11-01T23:23:21.053Z,101002.91
2022-11-01T23:28:23.469Z,100998.25
2022-11-01T23:33:32.468Z,101002.78
2022-11-01T23:38:45.892Z,100999.13
2022-11-01T23:43:47.884Z,100996.31
2022-11-01T23:48:50.152Z,100997.09
2022-11-01T23:53:54.127Z,100995.28
2022-11-01T23:59:00.633Z,100994.28
